sensor_id;sensor_type;location;lat;lon;timestamp;temperature;humidity
20915;DHT22;10617;52.032;5.298;2023-05-07T00:01:44;16.60;99.90
20915;DHT22;10617;52.032;5.298;2023-05-07T00:05:46;16.50;99.90
20915;DHT22;10617;52.032;5.298;2023-05-07T00:09:48;16.50;99.90
20915;DHT22;10617;52.032;5.298;2023-05-07T00:13:49;16.50;99.90
20915;DHT22;10617;52.032;5.298;2023-05-07T00:17:51;16.40;99.90
20915;DHT22;10617;52.032;5.298;2023-05-07T00:21:53;16.40;99.90
20915;DHT22;10617;52.032;5.298;2023-05-07T00:25:58;16.40;99.90
20915;DHT22;10617;52.032;5.298;2023-05-07T00:29:59;16.40;99.90
20915;DHT22;10617;52.032;5.298;2023-05-07T00:34:01;16.30;99.90
20915;DHT22;10617;52.032;5.298;2023-05-07T00:38:03;16.30;99.90
20915;DHT22;10617;52.032;5.298;2023-05-07T00:42:04;16.30;99.90
20915;DHT22;10617;52.032;5.298;2023-05-07T00:46:06;16.30;99.90
20915;DHT22;10617;52.032;5.298;2023-05-07T00:50:08;16.30;99.90
20915;DHT22;10617;52.032;5.298;2023-05-07T00:54:11;16.30;99.90
20915;DHT22;10617;52.032;5.298;2023-05-07T00:58:13;16.30;99.90
20915;DHT22;10617;52.032;5.298;2023-05-07T01:02:15;16.30;99.90
20915;DHT22;10617;52.032;5.298;2023-05-07T01:06:17;16.30;99.90
20915;DHT22;10617;52.032;5.298;2023-05-07T01:10:19;16.30;99.90
20915;DHT22;10617;52.032;5.298;2023-05-07T01:14:21;16.30;99.90
20915;DHT22;10617;52.032;5.298;2023-05-07T01:18:22;16.30;99.90
20915;DHT22;10617;52.032;5.298;2023-05-07T01:22:34;16.30;99.90
20915;DHT22;10617;52.032;5.298;2023-05-07T01:26:38;16.30;99.90
20915;DHT22;10617;52.032;5.298;2023-05-07T01:30:39;16.30;99.90
20915;DHT22;10617;52.032;5.298;2023-05-07T01:34:43;16.30;99.90
20915;DHT22;10617;52.032;5.298;2023-05-07T01:38:46;16.30;99.90
20915;DHT22;10617;52.032;5.298;2023-05-07T01:42:48;16.30;99.90
20915;DHT22;10617;52.032;5.298;2023-05-07T01:46:49;16.30;99.90
20915;DHT22;10617;52.032;5.298;2023-05-07T01:50:51;16.30;99.90
20915;DHT22;10617;52.032;5.298;2023-05-07T01:54:53;16.20;99.90
20915;DHT22;10617;52.032;5.298;2023-05-07T01:58:55;16.20;99.90
20915;DHT22;10617;52.032;5.298;2023-05-07T02:02:57;16.20;99.90
20915;DHT22;10617;52.032;5.298;2023-05-07T02:06:58;16.20;99.90
20915;DHT22;10617;52.032;5.298;2023-05-07T02:11:00;16.20;99.90
20915;DHT22;10617;52.032;5.298;2023-05-07T02:15:02;16.20;99.90
20915;DHT22;10617;52.032;5.298;2023-05-07T02:19:04;16.10;99.90
20915;DHT22;10617;52.032;5.298;2023-05-07T02:23:06;16.10;99.90
20915;DHT22;10617;52.032;5.298;2023-05-07T02:27:08;16.10;99.90
20915;DHT22;10617;52.032;5.298;2023-05-07T02:31:09;16.10;99.90
20915;DHT22;10617;52.032;5.298;2023-05-07T02:35:11;16.00;99.90
20915;DHT22;10617;52.032;5.298;2023-05-07T02:39:13;16.00;99.90
20915;DHT22;10617;52.032;5.298;2023-05-07T02:43:15;16.00;99.90
20915;DHT22;10617;52.032;5.298;2023-05-07T02:47:16;15.90;99.90
20915;DHT22;10617;52.032;5.298;2023-05-07T02:51:19;15.90;99.90
20915;DHT22;10617;52.032;5.298;2023-05-07T02:55:22;15.90;99.90
20915;DHT22;10617;52.032;5.298;2023-05-07T02:59:24;15.90;99.90
20915;DHT22;10617;52.032;5.298;2023-05-07T03:03:27;15.80;99.90
20915;DHT22;10617;52.032;5.298;2023-05-07T03:07:29;15.80;99.90
20915;DHT22;10617;52.032;5.298;2023-05-07T03:11:30;15.70;99.90
20915;DHT22;10617;52.032;5.298;2023-05-07T03:15:32;15.70;99.90
20915;DHT22;10617;52.032;5.298;2023-05-07T03:19:34;15.70;99.90
20915;DHT22;10617;52.032;5.298;2023-05-07T03:23:35;15.70;99.90
20915;DHT22;10617;52.032;5.298;2023-05-07T03:27:37;15.60;99.90
20915;DHT22;10617;52.032;5.298;2023-05-07T03:31:39;15.60;99.90
20915;DHT22;10617;52.032;5.298;2023-05-07T03:35:41;15.60;99.90
20915;DHT22;10617;52.032;5.298;2023-05-07T03:39:42;15.60;99.90
20915;DHT22;10617;52.032;5.298;2023-05-07T03:43:44;15.50;99.90
20915;DHT22;10617;52.032;5.298;2023-05-07T03:47:46;15.50;99.90
20915;DHT22;10617;52.032;5.298;2023-05-07T03:51:47;15.40;99.90
20915;DHT22;10617;52.032;5.298;2023-05-07T03:55:49;15.30;99.90
20915;DHT22;10617;52.032;5.298;2023-05-07T03:59:51;15.30;99.90
20915;DHT22;10617;52.032;5.298;2023-05-07T04:03:52;15.30;99.90
20915;DHT22;10617;52.032;5.298;2023-05-07T04:07:54;15.30;99.90
20915;DHT22;10617;52.032;5.298;2023-05-07T04:11:56;15.30;99.90
20915;DHT22;10617;52.032;5.298;2023-05-07T04:15:57;15.30;99.90
20915;DHT22;10617;52.032;5.298;2023-05-07T04:19:59;15.30;99.90
20915;DHT22;10617;52.032;5.298;2023-05-07T04:24:02;15.30;99.90
20915;DHT22;10617;52.032;5.298;2023-05-07T04:28:03;15.30;99.90
20915;DHT22;10617;52.032;5.298;2023-05-07T04:32:05;15.30;99.90
20915;DHT22;10617;52.032;5.298;2023-05-07T04:36:07;15.30;99.90
20915;DHT22;10617;52.032;5.298;2023-05-07T04:40:09;15.30;99.90
20915;DHT22;10617;52.032;5.298;2023-05-07T04:44:11;15.40;99.90
20915;DHT22;10617;52.032;5.298;2023-05-07T04:48:13;15.50;99.90
20915;DHT22;10617;52.032;5.298;2023-05-07T04:52:17;15.50;99.90
20915;DHT22;10617;52.032;5.298;2023-05-07T04:56:19;15.50;99.90
20915;DHT22;10617;52.032;5.298;2023-05-07T05:00:21;15.60;99.90
20915;DHT22;10617;52.032;5.298;2023-05-07T05:04:24;15.60;99.90
20915;DHT22;10617;52.032;5.298;2023-05-07T05:08:25;15.60;99.90
20915;DHT22;10617;52.032;5.298;2023-05-07T05:12:27;15.70;99.90
20915;DHT22;10617;52.032;5.298;2023-05-07T05:16:30;15.70;99.90
20915;DHT22;10617;52.032;5.298;2023-05-07T05:20:32;15.70;99.90
20915;DHT22;10617;52.032;5.298;2023-05-07T05:24:33;15.70;99.90
20915;DHT22;10617;52.032;5.298;2023-05-07T05:28:35;15.80;99.90
20915;DHT22;10617;52.032;5.298;2023-05-07T05:32:37;15.80;99.90
20915;DHT22;10617;52.032;5.298;2023-05-07T05:36:38;15.80;99.90
20915;DHT22;10617;52.032;5.298;2023-05-07T05:40:40;15.80;99.90
20915;DHT22;10617;52.032;5.298;2023-05-07T05:44:42;15.80;99.90
20915;DHT22;10617;52.032;5.298;2023-05-07T05:48:43;15.80;99.90
20915;DHT22;10617;52.032;5.298;2023-05-07T05:52:45;15.80;99.90
20915;DHT22;10617;52.032;5.298;2023-05-07T05:56:46;15.90;99.90
20915;DHT22;10617;52.032;5.298;2023-05-07T06:00:48;15.90;99.90
20915;DHT22;10617;52.032;5.298;2023-05-07T06:04:52;15.90;99.90
20915;DHT22;10617;52.032;5.298;2023-05-07T06:08:54;15.90;99.90
20915;DHT22;10617;52.032;5.298;2023-05-07T06:12:56;15.90;99.90
20915;DHT22;10617;52.032;5.298;2023-05-07T06:16:57;15.90;99.90
20915;DHT22;10617;52.032;5.298;2023-05-07T06:20:59;15.90;99.90
20915;DHT22;10617;52.032;5.298;2023-05-07T06:25:01;15.90;99.90
20915;DHT22;10617;52.032;5.298;2023-05-07T06:29:02;16.00;99.90
20915;DHT22;10617;52.032;5.298;2023-05-07T06:33:04;16.00;99.90
20915;DHT22;10617;52.032;5.298;2023-05-07T06:37:06;16.10;99.90
20915;DHT22;10617;52.032;5.298;2023-05-07T06:41:08;16.10;99.90
20915;DHT22;10617;52.032;5.298;2023-05-07T06:45:10;16.10;99.90
20915;DHT22;10617;52.032;5.298;2023-05-07T06:49:12;16.10;99.90
20915;DHT22;10617;52.032;5.298;2023-05-07T06:53:14;16.20;99.90
20915;DHT22;10617;52.032;5.298;2023-05-07T06:57:15;16.20;99.90
20915;DHT22;10617;52.032;5.298;2023-05-07T07:01:17;16.20;99.90
20915;DHT22;10617;52.032;5.298;2023-05-07T07:05:18;16.30;99.90
20915;DHT22;10617;52.032;5.298;2023-05-07T07:09:20;16.30;99.90
20915;DHT22;10617;52.032;5.298;2023-05-07T07:13:24;16.40;99.90
20915;DHT22;10617;52.032;5.298;2023-05-07T07:17:26;16.50;99.90
20915;DHT22;10617;52.032;5.298;2023-05-07T07:21:27;16.70;99.90
20915;DHT22;10617;52.032;5.298;2023-05-07T07:25:29;16.80;99.90
20915;DHT22;10617;52.032;5.298;2023-05-07T07:29:31;16.80;99.90
20915;DHT22;10617;52.032;5.298;2023-05-07T07:33:32;16.80;99.90
20915;DHT22;10617;52.032;5.298;2023-05-07T07:37:34;16.90;99.90
20915;DHT22;10617;52.032;5.298;2023-05-07T07:41:35;16.90;99.90
20915;DHT22;10617;52.032;5.298;2023-05-07T07:45:37;16.90;99.90
20915;DHT22;10617;52.032;5.298;2023-05-07T07:49:41;17.00;99.90
20915;DHT22;10617;52.032;5.298;2023-05-07T07:53:43;17.00;99.90
20915;DHT22;10617;52.032;5.298;2023-05-07T07:57:44;17.00;99.90
20915;DHT22;10617;52.032;5.298;2023-05-07T08:01:46;17.10;99.90
20915;DHT22;10617;52.032;5.298;2023-05-07T08:05:49;17.10;99.90
20915;DHT22;10617;52.032;5.298;2023-05-07T08:09:52;17.10;99.90
20915;DHT22;10617;52.032;5.298;2023-05-07T08:13:54;17.20;99.90
20915;DHT22;10617;52.032;5.298;2023-05-07T08:17:56;17.20;99.90
20915;DHT22;10617;52.032;5.298;2023-05-07T08:21:58;17.30;99.90
20915;DHT22;10617;52.032;5.298;2023-05-07T08:26:00;17.40;99.90
20915;DHT22;10617;52.032;5.298;2023-05-07T08:30:02;17.40;99.90
20915;DHT22;10617;52.032;5.298;2023-05-07T08:34:04;17.50;99.90
20915;DHT22;10617;52.032;5.298;2023-05-07T08:38:08;17.50;99.90
20915;DHT22;10617;52.032;5.298;2023-05-07T08:42:10;17.50;99.90
20915;DHT22;10617;52.032;5.298;2023-05-07T08:46:13;17.60;99.90
20915;DHT22;10617;52.032;5.298;2023-05-07T08:50:17;17.70;99.90
20915;DHT22;10617;52.032;5.298;2023-05-07T08:54:18;17.80;99.90
20915;DHT22;10617;52.032;5.298;2023-05-07T08:58:21;17.90;99.90
20915;DHT22;10617;52.032;5.298;2023-05-07T09:02:24;18.00;99.90
20915;DHT22;10617;52.032;5.298;2023-05-07T09:06:25;18.10;99.90
20915;DHT22;10617;52.032;5.298;2023-05-07T09:10:28;18.20;99.90
20915;DHT22;10617;52.032;5.298;2023-05-07T09:14:30;18.40;99.90
20915;DHT22;10617;52.032;5.298;2023-05-07T09:18:32;18.70;99.90
20915;DHT22;10617;52.032;5.298;2023-05-07T09:22:35;18.90;99.90
20915;DHT22;10617;52.032;5.298;2023-05-07T09:26:37;19.00;99.90
20915;DHT22;10617;52.032;5.298;2023-05-07T09:30:39;19.10;99.90
20915;DHT22;10617;52.032;5.298;2023-05-07T09:34:41;19.20;99.90
20915;DHT22;10617;52.032;5.298;2023-05-07T09:38:42;19.40;99.90
20915;DHT22;10617;52.032;5.298;2023-05-07T09:42:44;19.50;99.90
20915;DHT22;10617;52.032;5.298;2023-05-07T09:46:46;19.60;99.90
20915;DHT22;10617;52.032;5.298;2023-05-07T09:50:49;19.70;99.90
20915;DHT22;10617;52.032;5.298;2023-05-07T09:54:52;19.80;99.90
20915;DHT22;10617;52.032;5.298;2023-05-07T09:58:54;19.80;99.90
20915;DHT22;10617;52.032;5.298;2023-05-07T10:02:57;19.80;99.90
20915;DHT22;10617;52.032;5.298;2023-05-07T10:06:59;19.80;99.90
20915;DHT22;10617;52.032;5.298;2023-05-07T10:11:01;19.80;99.90
20915;DHT22;10617;52.032;5.298;2023-05-07T10:15:03;19.80;99.90
20915;DHT22;10617;52.032;5.298;2023-05-07T10:19:05;19.90;99.90
20915;DHT22;10617;52.032;5.298;2023-05-07T10:23:07;20.00;99.90
20915;DHT22;10617;52.032;5.298;2023-05-07T10:27:10;20.10;99.90
20915;DHT22;10617;52.032;5.298;2023-05-07T10:35:24;20.50;99.90
20915;DHT22;10617;52.032;5.298;2023-05-07T10:39:26;20.70;99.90
20915;DHT22;10617;52.032;5.298;2023-05-07T10:43:38;20.80;99.90
20915;DHT22;10617;52.032;5.298;2023-05-07T10:52:10;21.20;99.90
20915;DHT22;10617;52.032;5.298;2023-05-07T11:04:38;21.40;99.90
20915;DHT22;10617;52.032;5.298;2023-05-07T11:12:54;21.50;99.90
20915;DHT22;10617;52.032;5.298;2023-05-07T11:17:01;21.50;99.90
20915;DHT22;10617;52.032;5.298;2023-05-07T11:21:03;21.60;99.90
20915;DHT22;10617;52.032;5.298;2023-05-07T11:25:06;21.80;99.90
20915;DHT22;10617;52.032;5.298;2023-05-07T11:29:17;22.00;99.90
20915;DHT22;10617;52.032;5.298;2023-05-07T11:33:22;22.20;99.90
20915;DHT22;10617;52.032;5.298;2023-05-07T11:37:25;22.30;99.90
20915;DHT22;10617;52.032;5.298;2023-05-07T11:41:34;22.40;99.90
20915;DHT22;10617;52.032;5.298;2023-05-07T11:45:37;22.50;99.90
20915;DHT22;10617;52.032;5.298;2023-05-07T11:49:39;22.30;99.90
20915;DHT22;10617;52.032;5.298;2023-05-07T11:53:42;22.40;99.90
20915;DHT22;10617;52.032;5.298;2023-05-07T11:57:44;22.40;99.90
20915;DHT22;10617;52.032;5.298;2023-05-07T12:01:46;22.50;99.90
20915;DHT22;10617;52.032;5.298;2023-05-07T12:05:48;22.50;99.90
20915;DHT22;10617;52.032;5.298;2023-05-07T12:09:50;22.70;99.90
20915;DHT22;10617;52.032;5.298;2023-05-07T12:13:53;22.90;99.90
20915;DHT22;10617;52.032;5.298;2023-05-07T12:17:59;23.10;99.90
20915;DHT22;10617;52.032;5.298;2023-05-07T12:22:01;23.30;99.90
20915;DHT22;10617;52.032;5.298;2023-05-07T12:26:04;23.40;99.90
20915;DHT22;10617;52.032;5.298;2023-05-07T12:30:09;23.50;99.90
20915;DHT22;10617;52.032;5.298;2023-05-07T12:34:11;23.60;99.90
20915;DHT22;10617;52.032;5.298;2023-05-07T12:38:13;23.70;99.90
20915;DHT22;10617;52.032;5.298;2023-05-07T12:42:16;23.70;99.90
20915;DHT22;10617;52.032;5.298;2023-05-07T12:46:18;23.60;99.90
20915;DHT22;10617;52.032;5.298;2023-05-07T12:50:20;23.50;99.90
20915;DHT22;10617;52.032;5.298;2023-05-07T12:54:28;23.50;99.90
20915;DHT22;10617;52.032;5.298;2023-05-07T12:58:32;23.60;99.90
20915;DHT22;10617;52.032;5.298;2023-05-07T13:02:37;23.60;99.90
20915;DHT22;10617;52.032;5.298;2023-05-07T13:06:39;23.60;99.90
20915;DHT22;10617;52.032;5.298;2023-05-07T13:10:41;23.50;99.90
20915;DHT22;10617;52.032;5.298;2023-05-07T13:14:42;23.30;99.90
20915;DHT22;10617;52.032;5.298;2023-05-07T13:18:44;23.00;99.90
20915;DHT22;10617;52.032;5.298;2023-05-07T13:22:47;22.90;99.90
20915;DHT22;10617;52.032;5.298;2023-05-07T13:26:48;22.80;99.90
20915;DHT22;10617;52.032;5.298;2023-05-07T13:30:51;22.70;99.90
20915;DHT22;10617;52.032;5.298;2023-05-07T13:34:53;22.70;99.90
20915;DHT22;10617;52.032;5.298;2023-05-07T13:38:55;22.70;99.90
20915;DHT22;10617;52.032;5.298;2023-05-07T13:42:57;22.80;99.90
20915;DHT22;10617;52.032;5.298;2023-05-07T13:46:59;22.90;99.90
20915;DHT22;10617;52.032;5.298;2023-05-07T13:51:02;23.00;99.90
20915;DHT22;10617;52.032;5.298;2023-05-07T13:55:03;23.00;99.90
20915;DHT22;10617;52.032;5.298;2023-05-07T13:59:05;23.00;99.90
20915;DHT22;10617;52.032;5.298;2023-05-07T14:03:07;22.90;99.90
20915;DHT22;10617;52.032;5.298;2023-05-07T14:07:08;22.90;99.90
20915;DHT22;10617;52.032;5.298;2023-05-07T14:11:10;22.90;99.90
20915;DHT22;10617;52.032;5.298;2023-05-07T14:15:12;23.00;99.90
20915;DHT22;10617;52.032;5.298;2023-05-07T14:19:14;23.00;99.90
20915;DHT22;10617;52.032;5.298;2023-05-07T14:23:15;22.90;99.90
20915;DHT22;10617;52.032;5.298;2023-05-07T14:27:19;22.90;99.90
20915;DHT22;10617;52.032;5.298;2023-05-07T14:31:20;22.90;99.90
20915;DHT22;10617;52.032;5.298;2023-05-07T14:35:22;22.80;99.90
20915;DHT22;10617;52.032;5.298;2023-05-07T14:39:24;22.80;99.90
20915;DHT22;10617;52.032;5.298;2023-05-07T14:43:26;22.70;99.90
20915;DHT22;10617;52.032;5.298;2023-05-07T14:47:28;22.60;99.90
20915;DHT22;10617;52.032;5.298;2023-05-07T14:51:30;22.50;99.90
20915;DHT22;10617;52.032;5.298;2023-05-07T14:55:32;22.40;99.90
20915;DHT22;10617;52.032;5.298;2023-05-07T14:59:35;22.30;99.90
20915;DHT22;10617;52.032;5.298;2023-05-07T15:03:36;22.10;99.90
20915;DHT22;10617;52.032;5.298;2023-05-07T15:07:38;22.00;99.90
20915;DHT22;10617;52.032;5.298;2023-05-07T15:11:40;21.90;99.90
20915;DHT22;10617;52.032;5.298;2023-05-07T15:15:42;21.80;99.90
20915;DHT22;10617;52.032;5.298;2023-05-07T15:19:45;21.30;99.90
20915;DHT22;10617;52.032;5.298;2023-05-07T15:23:47;20.90;99.90
20915;DHT22;10617;52.032;5.298;2023-05-07T15:27:48;20.50;99.90
20915;DHT22;10617;52.032;5.298;2023-05-07T15:31:50;20.30;99.90
20915;DHT22;10617;52.032;5.298;2023-05-07T15:35:52;20.10;99.90
20915;DHT22;10617;52.032;5.298;2023-05-07T15:39:53;20.00;99.90
20915;DHT22;10617;52.032;5.298;2023-05-07T15:43:55;20.00;99.90
20915;DHT22;10617;52.032;5.298;2023-05-07T15:47:56;20.20;99.90
20915;DHT22;10617;52.032;5.298;2023-05-07T15:56:37;20.50;99.90
20915;DHT22;10617;52.032;5.298;2023-05-07T16:00:39;20.60;99.90
20915;DHT22;10617;52.032;5.298;2023-05-07T16:04:42;21.00;99.90
20915;DHT22;10617;52.032;5.298;2023-05-07T16:08:43;21.40;99.90
20915;DHT22;10617;52.032;5.298;2023-05-07T16:12:45;21.70;99.90
20915;DHT22;10617;52.032;5.298;2023-05-07T16:16:46;21.80;99.90
20915;DHT22;10617;52.032;5.298;2023-05-07T16:20:48;22.10;99.90
20915;DHT22;10617;52.032;5.298;2023-05-07T16:24:50;22.80;99.90
20915;DHT22;10617;52.032;5.298;2023-05-07T16:28:52;23.20;99.90
20915;DHT22;10617;52.032;5.298;2023-05-07T16:32:53;23.10;99.90
20915;DHT22;10617;52.032;5.298;2023-05-07T16:36:55;22.60;99.90
20915;DHT22;10617;52.032;5.298;2023-05-07T16:40:58;22.10;99.90
20915;DHT22;10617;52.032;5.298;2023-05-07T16:44:59;21.70;99.90
20915;DHT22;10617;52.032;5.298;2023-05-07T16:49:01;21.50;99.90
20915;DHT22;10617;52.032;5.298;2023-05-07T16:53:04;21.20;99.90
20915;DHT22;10617;52.032;5.298;2023-05-07T16:57:06;21.00;99.90
20915;DHT22;10617;52.032;5.298;2023-05-07T17:01:07;20.80;99.90
20915;DHT22;10617;52.032;5.298;2023-05-07T17:05:11;20.70;99.90
20915;DHT22;10617;52.032;5.298;2023-05-07T17:09:13;20.60;99.90
20915;DHT22;10617;52.032;5.298;2023-05-07T17:13:15;20.60;99.90
20915;DHT22;10617;52.032;5.298;2023-05-07T17:17:17;20.60;99.90
20915;DHT22;10617;52.032;5.298;2023-05-07T17:21:18;20.80;99.90
20915;DHT22;10617;52.032;5.298;2023-05-07T17:25:20;21.10;99.90
20915;DHT22;10617;52.032;5.298;2023-05-07T17:29:23;21.50;99.90
20915;DHT22;10617;52.032;5.298;2023-05-07T17:33:25;21.60;99.90
20915;DHT22;10617;52.032;5.298;2023-05-07T17:37:27;21.50;99.90
20915;DHT22;10617;52.032;5.298;2023-05-07T17:41:29;21.40;99.90
20915;DHT22;10617;52.032;5.298;2023-05-07T17:45:31;21.20;99.90
20915;DHT22;10617;52.032;5.298;2023-05-07T17:49:33;21.10;99.90
20915;DHT22;10617;52.032;5.298;2023-05-07T17:53:35;21.00;99.90
20915;DHT22;10617;52.032;5.298;2023-05-07T17:57:37;20.90;99.90
20915;DHT22;10617;52.032;5.298;2023-05-07T18:01:38;20.80;99.90
20915;DHT22;10617;52.032;5.298;2023-05-07T18:05:41;20.60;99.90
20915;DHT22;10617;52.032;5.298;2023-05-07T18:09:42;20.50;99.90
20915;DHT22;10617;52.032;5.298;2023-05-07T18:13:44;20.40;99.90
20915;DHT22;10617;52.032;5.298;2023-05-07T18:17:46;20.30;99.90
20915;DHT22;10617;52.032;5.298;2023-05-07T18:21:47;20.30;99.90
20915;DHT22;10617;52.032;5.298;2023-05-07T18:25:49;20.20;99.90
20915;DHT22;10617;52.032;5.298;2023-05-07T18:29:51;20.10;99.90
20915;DHT22;10617;52.032;5.298;2023-05-07T18:33:53;20.00;99.90
20915;DHT22;10617;52.032;5.298;2023-05-07T18:37:56;19.90;99.90
20915;DHT22;10617;52.032;5.298;2023-05-07T18:41:58;19.80;99.90
20915;DHT22;10617;52.032;5.298;2023-05-07T18:46:00;19.70;99.90
20915;DHT22;10617;52.032;5.298;2023-05-07T18:50:02;19.70;99.90
20915;DHT22;10617;52.032;5.298;2023-05-07T18:54:05;19.60;99.90
20915;DHT22;10617;52.032;5.298;2023-05-07T18:58:07;19.50;99.90
20915;DHT22;10617;52.032;5.298;2023-05-07T19:02:08;19.40;99.90
20915;DHT22;10617;52.032;5.298;2023-05-07T19:06:10;19.40;99.90
20915;DHT22;10617;52.032;5.298;2023-05-07T19:10:12;19.30;99.90
20915;DHT22;10617;52.032;5.298;2023-05-07T19:14:14;19.30;99.90
20915;DHT22;10617;52.032;5.298;2023-05-07T19:18:16;19.20;99.90
20915;DHT22;10617;52.032;5.298;2023-05-07T19:22:17;19.10;99.90
20915;DHT22;10617;52.032;5.298;2023-05-07T19:26:19;19.00;99.90
20915;DHT22;10617;52.032;5.298;2023-05-07T19:30:21;19.00;99.90
20915;DHT22;10617;52.032;5.298;2023-05-07T19:34:23;18.90;99.90
20915;DHT22;10617;52.032;5.298;2023-05-07T19:38:25;18.90;99.90
20915;DHT22;10617;52.032;5.298;2023-05-07T19:42:26;18.80;99.90
20915;DHT22;10617;52.032;5.298;2023-05-07T19:46:28;18.70;99.90
20915;DHT22;10617;52.032;5.298;2023-05-07T19:50:30;18.70;99.90
20915;DHT22;10617;52.032;5.298;2023-05-07T19:54:31;18.60;99.90
20915;DHT22;10617;52.032;5.298;2023-05-07T19:58:33;18.50;99.90
20915;DHT22;10617;52.032;5.298;2023-05-07T20:02:35;18.40;99.90
20915;DHT22;10617;52.032;5.298;2023-05-07T20:06:37;18.30;99.90
20915;DHT22;10617;52.032;5.298;2023-05-07T20:10:38;18.20;99.90
20915;DHT22;10617;52.032;5.298;2023-05-07T20:14:40;18.20;99.90
20915;DHT22;10617;52.032;5.298;2023-05-07T20:18:42;18.10;99.90
20915;DHT22;10617;52.032;5.298;2023-05-07T20:22:44;18.00;99.90
20915;DHT22;10617;52.032;5.298;2023-05-07T20:26:45;17.90;99.90
20915;DHT22;10617;52.032;5.298;2023-05-07T20:30:47;17.80;99.90
20915;DHT22;10617;52.032;5.298;2023-05-07T20:34:49;17.70;99.90
20915;DHT22;10617;52.032;5.298;2023-05-07T20:38:50;17.60;99.90
20915;DHT22;10617;52.032;5.298;2023-05-07T20:42:52;17.50;99.90
20915;DHT22;10617;52.032;5.298;2023-05-07T20:46:54;17.40;99.90
20915;DHT22;10617;52.032;5.298;2023-05-07T20:50:56;17.30;99.90
20915;DHT22;10617;52.032;5.298;2023-05-07T20:54:58;17.20;99.90
20915;DHT22;10617;52.032;5.298;2023-05-07T21:09:20;17.00;99.90
20915;DHT22;10617;52.032;5.298;2023-05-07T21:13:22;17.00;99.90
20915;DHT22;10617;52.032;5.298;2023-05-07T21:17:24;16.90;99.90
20915;DHT22;10617;52.032;5.298;2023-05-07T21:21:25;16.90;99.90
20915;DHT22;10617;52.032;5.298;2023-05-07T21:25:28;16.80;99.90
20915;DHT22;10617;52.032;5.298;2023-05-07T21:29:30;16.70;99.90
20915;DHT22;10617;52.032;5.298;2023-05-07T21:33:31;16.70;99.90
20915;DHT22;10617;52.032;5.298;2023-05-07T21:37:33;16.60;99.90
20915;DHT22;10617;52.032;5.298;2023-05-07T21:41:34;16.60;99.90
20915;DHT22;10617;52.032;5.298;2023-05-07T21:45:37;16.50;99.90
20915;DHT22;10617;52.032;5.298;2023-05-07T21:49:39;16.50;99.90
20915;DHT22;10617;52.032;5.298;2023-05-07T21:53:41;16.40;99.90
20915;DHT22;10617;52.032;5.298;2023-05-07T21:57:43;16.30;99.90
20915;DHT22;10617;52.032;5.298;2023-05-07T22:01:54;16.20;99.90
20915;DHT22;10617;52.032;5.298;2023-05-07T22:05:57;16.20;99.90
20915;DHT22;10617;52.032;5.298;2023-05-07T22:09:59;16.20;99.90
20915;DHT22;10617;52.032;5.298;2023-05-07T22:14:01;16.10;99.90
20915;DHT22;10617;52.032;5.298;2023-05-07T22:18:02;16.10;99.90
20915;DHT22;10617;52.032;5.298;2023-05-07T22:22:04;16.00;99.90
20915;DHT22;10617;52.032;5.298;2023-05-07T22:26:09;16.00;99.90
20915;DHT22;10617;52.032;5.298;2023-05-07T22:30:11;16.00;99.90
20915;DHT22;10617;52.032;5.298;2023-05-07T22:34:13;15.90;99.90
20915;DHT22;10617;52.032;5.298;2023-05-07T22:38:15;15.90;99.90
20915;DHT22;10617;52.032;5.298;2023-05-07T22:42:16;15.80;99.90
20915;DHT22;10617;52.032;5.298;2023-05-07T22:46:18;15.80;99.90
20915;DHT22;10617;52.032;5.298;2023-05-07T22:50:19;15.70;99.90
20915;DHT22;10617;52.032;5.298;2023-05-07T22:54:21;15.70;99.90
20915;DHT22;10617;52.032;5.298;2023-05-07T22:58:25;15.60;99.90
20915;DHT22;10617;52.032;5.298;2023-05-07T23:02:27;15.50;99.90
20915;DHT22;10617;52.032;5.298;2023-05-07T23:06:29;15.50;99.90
20915;DHT22;10617;52.032;5.298;2023-05-07T23:10:31;15.50;99.90
20915;DHT22;10617;52.032;5.298;2023-05-07T23:14:35;15.40;99.90
20915;DHT22;10617;52.032;5.298;2023-05-07T23:18:36;15.30;99.90
20915;DHT22;10617;52.032;5.298;2023-05-07T23:22:38;15.30;99.90
20915;DHT22;10617;52.032;5.298;2023-05-07T23:26:40;15.20;99.90
20915;DHT22;10617;52.032;5.298;2023-05-07T23:30:42;15.20;99.90
20915;DHT22;10617;52.032;5.298;2023-05-07T23:34:47;15.10;99.90
20915;DHT22;10617;52.032;5.298;2023-05-07T23:38:49;15.10;99.90
20915;DHT22;10617;52.032;5.298;2023-05-07T23:42:51;15.10;99.90
20915;DHT22;10617;52.032;5.298;2023-05-07T23:46:52;15.10;99.90
20915;DHT22;10617;52.032;5.298;2023-05-07T23:50:54;15.00;99.90
20915;DHT22;10617;52.032;5.298;2023-05-07T23:54:56;15.00;99.90
20915;DHT22;10617;52.032;5.298;2023-05-07T23:58:57;15.00;99.90
